Aviation Digital Data Service (ADDS)

Output produced by METARs form (1217 UTC 25 June 2019)
found at http://www.aviationweather.gov/metar/data/
 
Forecast for: CYQK (KENORA AIRPORT , ON, CA)
Text: TAF CYQK 250738Z 2508/2520 27006KT P6SM SCT080 BKN240
Forecast period: 0800 to 2000 UTC 25 June 2019
Forecast type: FROM: standard forecast or significant change
Winds: from the W (270 degrees) at 7 MPH (6 knots; 3.1 m/s)
Visibility: 6 or more miles 10+ km)
Ceiling: 24000 feet AGL
Clouds: scattered clouds at 8000 feet AGL
broken clouds at 24000 feet AGL
Weather: no significant weather forecast for this period
Text: PROB40 2518/2520 3SM TSRA OVC050CB RMK NXT FCST BY 251400Z
Forecast period: 1800 to 2000 UTC 25 June 2019
Forecast type: PROBABLE: 40 percent likelihood of the following during this time
Visibility: 3 miles (5 km)
Ceiling: 5000 feet AGL
Clouds: overcast cloud deck at 5000 feet AGL
Weather: TSRA  (rain associated with thunderstorm(s))